createdAt,value
2023-08-07T00:07:42.195Z,5.28
2023-08-07T00:17:46.653Z,5.13
2023-08-07T00:27:49.731Z,5.22
2023-08-07T00:37:54.384Z,6.10
2023-08-07T00:47:57.695Z,4.90
2023-08-07T00:58:07.440Z,5.43
2023-08-07T01:08:41.801Z,5.88
2023-08-07T01:18:56.224Z,6.22
2023-08-07T01:29:07.966Z,4.75
2023-08-07T01:39:12.195Z,5.70
2023-08-07T01:49:16.614Z,5.40
2023-08-07T01:59:19.535Z,5.30
2023-08-07T02:09:24.738Z,5.18
2023-08-07T02:19:27.685Z,4.60
2023-08-07T02:29:35.320Z,6.28
2023-08-07T02:39:49.073Z,4.90
2023-08-07T02:49:55.321Z,5.57
2023-08-07T03:00:00.282Z,5.53
2023-08-07T03:10:43.730Z,6.60
2023-08-07T03:42:02.001Z,4.68
2023-08-07T03:52:08.222Z,4.65
2023-08-07T04:02:14.786Z,4.65
2023-08-07T04:12:18.030Z,4.90
2023-08-07T04:22:22.431Z,4.22
2023-08-07T04:32:26.765Z,3.95
2023-08-07T04:42:31.427Z,4.25
2023-08-07T04:52:34.318Z,3.38
2023-08-07T05:02:38.848Z,4.07
2023-08-07T05:12:41.901Z,3.95
2023-08-07T05:22:53.841Z,4.20
2023-08-07T05:32:56.977Z,3.38
2023-08-07T05:53:03.830Z,3.00
2023-08-07T06:03:08.356Z,2.73
2023-08-07T06:13:19.897Z,3.30
2023-08-07T06:23:30.943Z,2.40
2023-08-07T06:33:36.726Z,2.50
2023-08-07T06:43:41.060Z,2.47
2023-08-07T06:53:46.953Z,2.95
2023-08-07T07:03:54.194Z,3.28
2023-08-07T07:13:57.298Z,2.42
2023-08-07T07:24:05.218Z,2.53
2023-08-07T07:34:08.200Z,2.95
2023-08-07T07:44:14.901Z,3.00
2023-08-07T07:54:17.977Z,2.75
2023-08-07T08:04:24.363Z,2.47
2023-08-07T08:14:33.331Z,2.45
2023-08-07T08:24:44.785Z,2.63
2023-08-07T08:34:51.462Z,3.10
2023-08-07T08:45:03.618Z,2.83
2023-08-07T08:55:07.947Z,2.78
2023-08-07T09:05:17.078Z,2.42
2023-08-07T09:15:21.196Z,2.28
2023-08-07T09:25:32.405Z,2.45
2023-08-07T09:35:35.817Z,2.30
2023-08-07T09:45:43.527Z,2.60
2023-08-07T09:55:52.636Z,2.03
2023-08-07T10:05:57.628Z,2.10
2023-08-07T10:16:04.826Z,2.70
2023-08-07T10:26:15.962Z,2.80
2023-08-07T10:36:21.741Z,2.65
2023-08-07T10:46:26.705Z,2.20
2023-08-07T10:56:34.594Z,2.63
2023-08-07T11:06:40.597Z,2.20
2023-08-07T11:16:44.561Z,2.95
2023-08-07T11:26:49.379Z,2.83
2023-08-07T11:37:04.668Z,2.55
2023-08-07T11:47:12.767Z,2.25
2023-08-07T11:57:21.764Z,2.70
2023-08-07T12:07:29.188Z,2.40
2023-08-07T12:17:36.401Z,2.10
2023-08-07T12:27:43.518Z,2.78
2023-08-07T12:37:48.261Z,2.13
2023-08-07T12:47:55.548Z,2.13
2023-08-07T12:58:00.044Z,2.65
2023-08-07T13:08:04.768Z,2.40
2023-08-07T13:18:07.956Z,1.85
2023-08-07T13:28:12.535Z,2.20
2023-08-07T13:38:16.513Z,2.67
2023-08-07T13:48:28.078Z,2.40
2023-08-07T13:58:33.778Z,2.53
2023-08-07T14:08:38.862Z,2.53
2023-08-07T14:18:42.193Z,1.93
2023-08-07T14:28:53.538Z,2.78
2023-08-07T14:38:58.393Z,2.20
2023-08-07T14:49:06.229Z,2.30
2023-08-07T14:59:12.804Z,2.75
2023-08-07T15:09:18.629Z,2.70
2023-08-07T15:19:24.200Z,2.20
2023-08-07T15:29:32.710Z,3.08
2023-08-07T15:39:35.847Z,2.83
2023-08-07T15:49:40.148Z,3.22
2023-08-07T15:59:44.745Z,3.05
2023-08-07T16:09:51.066Z,3.35
2023-08-07T16:19:54.012Z,4.07
2023-08-07T16:30:04.928Z,3.92
2023-08-07T16:40:09.526Z,3.30
2023-08-07T16:50:14.130Z,4.63
2023-08-07T17:00:20.200Z,3.85
2023-08-07T17:10:24.490Z,3.97
2023-08-07T17:20:29.241Z,3.83
2023-08-07T17:30:36.808Z,3.85
2023-08-07T17:40:39.944Z,4.13
2023-08-07T17:50:45.036Z,4.85
2023-08-07T18:00:51.986Z,4.43
2023-08-07T18:11:03.433Z,5.10
2023-08-07T18:21:06.396Z,5.15
2023-08-07T18:31:13.658Z,5.13
2023-08-07T18:41:19.364Z,5.20
2023-08-07T18:51:26.731Z,4.88
2023-08-07T19:01:32.413Z,5.83
2023-08-07T19:11:37.005Z,6.63
2023-08-07T19:21:40.432Z,5.25
2023-08-07T19:31:49.109Z,4.78
2023-08-07T19:41:54.616Z,4.78
2023-08-07T19:52:04.576Z,5.57
2023-08-07T20:02:09.017Z,3.95
2023-08-07T20:12:18.608Z,3.13
2023-08-07T20:22:24.540Z,3.75
2023-08-07T20:32:30.349Z,3.38
2023-08-07T20:42:36.672Z,3.25
2023-08-07T20:52:41.294Z,3.50
2023-08-07T21:02:44.752Z,3.65
2023-08-07T21:12:49.438Z,3.30
2023-08-07T21:22:52.657Z,3.05
2023-08-07T21:32:57.114Z,3.53
2023-08-07T21:43:10.224Z,3.58
2023-08-07T21:53:14.576Z,3.90
2023-08-07T22:03:19.947Z,3.08
2023-08-07T22:13:25.245Z,2.50
2023-08-07T22:23:33.754Z,3.00
2023-08-07T22:33:40.832Z,3.25
2023-08-07T22:43:44.228Z,3.10
2023-08-07T22:53:48.857Z,3.95
2023-08-07T23:03:52.060Z,3.40
2023-08-07T23:13:56.847Z,3.05
2023-08-07T23:24:00.006Z,4.03
2023-08-07T23:34:05.826Z,4.20
2023-08-07T23:44:08.741Z,4.45
2023-08-07T23:54:14.584Z,4.65
